Terminal Aerodrome Forecast
Issued by NWS

Home | Current Version | Previous Version | Text Only | Print | Product List | Glossary On
Versions: 1 2 3 4 5 6 7 8 9 10 11 12 13 14 15 16 17 18 19 20 21 22 23 24 25 26 27
000
FTUS45 KBOU 212106 AAA
TAFAPA
TAF AMD
KAPA 212106Z 2121/2218 17008KT P6SM BKN090 BKN150
      TEMPO 2121/2122 -SHRA
     FM212200 13012KT P6SM SCT090 BKN120
     FM220200 16014G22KT P6SM FEW120 SCT220
     FM221000 18008KT P6SM FEW120 SCT220
     FM221500 20007KT P6SM SCT120 BKN220=

USA.gov is the U.S. government's official web portal to all federal, state and local government web resources and services.